Juan de Fuca Strait - east entrance: Past 24 Hour Conditions

 

Halibut Bank - 46146

04:00 AM PDT 23 March 2017Buoy position: 49.34N 123.72W
Disclaimer

This table is a summary of hourly weather conditions for the past 24 hours.
Please note that these observations might not always be representative of weather conditions over their associated marine area.

Date / Time
(PDT)
Wind(knots) Wave height(m) Wave period(s) Pressure(kPa) Air tempC) Water tempC)
23 March 2017
4:00 SE 12 gust 16 0.4 3.0 101.6 8 8
3:00 SE 14 gust 16 0.4 3.0 101.6 8 8
2:00 SE 12 gust 16 0.3 3.0 101.6 8 8
1:00 SSE 12 gust 18 0.4 3.0 101.6 7 8
0:00 SSE 14 gust 16 0.5 4.0 101.5 7 8
22 March 2017
23:00 S 12 gust 16 0.5 3.0 101.5 7 8
22:00 S 18 gust 19 0.5 3.0 101.5 8 8
21:00 W 4 gust 12 0.5 3.0 101.4 9 8
20:00 WSW 12 gust 19 0.4 3.0 101.3 9 8
19:00 W 14 gust 16 0.3 3.0 101.1 10 8
18:00 SSE 8 gust 12 0.3 3.0 101.0 10 8
17:00 ESE 10 gust 16 0.4 3.0 100.9 9 8
16:00 E 14 gust 18 0.5 3.0 100.8 9 8
15:00 E 14 gust 18 0.6 3.0 100.8 9 8
14:00 E 19 gust 21 0.6 3.0 100.8 9 8
13:00 ESE 16 gust 19 0.5 3.0 100.8 9 8
12:00 ESE 12 gust 16 0.7 4.0 100.7 9 8
11:00 ESE 14 gust 18 0.8 4.0 100.7 9 8
10:00 ESE 16 gust 18 0.9 4.0 100.6 9 8
9:00 ESE 18 gust 21 0.8 4.0 100.5 9 8
8:00 ESE 21 gust 23 0.6 3.0 100.5 9 8
7:00 ESE 16 gust 19 0.4 3.0 100.4 10 8
6:00 E 14 gust 16 0.3 3.0 100.4 9 8
5:00 E 12 gust 12 0.3 3.0 100.4 9 8
4:00 E 14 gust 16 0.4 3.0 100.4 10 8

Zoom-in to make a selection

Map of Pacific - Georgia Basin marine weather areas Tsawwassen Ferry Terminal Sentry Shoal - 46131 Halibut Bank - 46146 La Perouse Bank - 46206 Discovery Island Esquimalt Harbour Kelp Reefs Malahat Race Rocks Lightstation Saturna Island Sheringham Point University of Victoria Victoria Gonzales Victoria Int'l Airport Ballenas Islands Campbell River Airport Comox Airport Entrance Island Fanny Island Nanaimo Airport Sisters Islets Estevan Point Tofino Airport Grief Point Powell River Airport Sechelt Point Atkinson Sand Heads Lightstation Vancouver Harbour Vancouver Int'l Airport West Vancouver Port Alberni Howe Sound - Pam Rocks Squamish Airport
Legend:
buoy Buoy
land station Land Station

Pacific - Georgia Basin Area

Another Region

What we are doing

Date modified: